• Join FlightAware (Why Join?)
  • Login
  • US Flag 
07:21AM EDT


 

Airport Tracker/Info


-or-


 

Live Flight TrackerFlight Track Log ✈ GJS3707 ✈ 07-Jul-2013 ✈ KBOI - KORD

Flight Track Log - Related Links

Times and Time Zones

All times are in EDT time to prevent confusion due to time zone crossing. See the GJS3707 flight status page for this flight to view local times or setup timezone preferences in your user account.

Time Position Orientation Groundspeed Altitude Reporting Facility
EDT Latitude Longitude Course Direction KTS MPH feet Rate Location/Type
03:07PM 43.5842 -116.2892 81° East 197 227 4,300  Level Salt Lake Center
03:08PM 43.6342 -116.3469 320° Northwest 255 293 6,000 1,740 Climbing Salt Lake Center
03:09PM 43.6964 -116.3053 26° Northeast 271 312 8,000 1,920 Climbing Salt Lake Center
03:10PM 43.6510 -115.5469 65° Northeast  Level FlightAware Approximate
03:10PM 43.7169 -116.1858 77° East 288 331 10,000  Level Salt Lake Center
03:11PM 43.6727 -115.3795 81° East  Level FlightAware Approximate
03:12PM 43.7023 -115.2132 81° East  Level FlightAware Approximate
03:12PM 43.7325 -116.0686 80° East 321 369 10,900  Level Salt Lake Center
03:13PM 43.7213 -115.0427 81° East  Level FlightAware Approximate
03:13PM 43.7489 -115.9108 82° East 368 423 12,500  Level Salt Lake Center
03:14PM 43.7656 -115.7719 81° East 379 436 13,900 1,500 Climbing Salt Lake Center
03:15PM 43.7775 -115.6025 84° East 395 455 15,700 1,560 Climbing Salt Lake Center
03:16PM 43.7897 -115.4533 83° East 407 468 17,200 1,500 Climbing Salt Lake Center
03:17PM 43.8000 -115.3008 85° East 416 479 18,800 1,680 Climbing Salt Lake Center
03:18PM 43.7836 -115.1233 97° East 417 480 20,700 1,620 Climbing Salt Lake Center
03:19PM 43.7703 -114.9700 97° East 421 484 22,200 1,440 Climbing Salt Lake Center
03:20PM 43.7786 -114.7872 86° East 430 495 23,700 1,140 Climbing Salt Lake Center
03:21PM 43.7908 -114.6250 84° East 444 511 24,600 960 Climbing Salt Lake Center
03:22PM 43.8053 -114.4292 84° East 457 526 25,800 1,020 Climbing Salt Lake Center
03:23PM 43.8167 -114.2578 85° East 467 537 26,800 1,080 Climbing Salt Lake Center
03:24PM 43.8294 -114.0575 85° East 468 539 28,100 1,140 Climbing Salt Lake Center
03:25PM 43.8431 -113.8819 84° East 471 542 29,200 900 Climbing Salt Lake Center
03:26PM 43.8556 -113.6789 85° East 475 547 30,000 660 Climbing Salt Lake Center
03:27PM 43.8658 -113.5025 85° East 480 552 30,600 660 Climbing Salt Lake Center
03:28PM 43.8778 -113.2917 85° East 490 564 31,400 720 Climbing Salt Lake Center
03:29PM 43.8864 -113.1150 86° East 490 564 32,200 780 Climbing Salt Lake Center
03:30PM 43.9000 -112.9014 85° East 490 564 33,100 780 Climbing Salt Lake Center
03:31PM 43.9097 -112.7211 86° East 491 565 33,900 720 Climbing Salt Lake Center
03:32PM 43.9186 -112.5408 86° East 490 564 34,700 660 Climbing Salt Lake Center
03:33PM 43.9297 -112.3306 86° East 490 564 35,300 480 Climbing Salt Lake Center
03:34PM 43.9386 -112.1492 86° East 494 568 35,800 480 Climbing Salt Lake Center
03:35PM 43.9481 -111.9378 86° East 494 568 36,300 480 Climbing Salt Lake Center
03:36PM 43.9564 -111.7564 86° East 495 570 36,800 300 Climbing Salt Lake Center
03:37PM 43.9669 -111.5442 86° East 496 571 37,000 60 Climbing Salt Lake Center
03:38PM 43.9739 -111.3575 87° East 506 582 37,000  Level Salt Lake Center
03:39PM 43.9833 -111.1356 87° East 517 595 37,000  Level Salt Lake Center
03:40PM 43.9703 -110.9450 95° East 519 597 37,000  Level Salt Lake Center
03:42PM 43.9322 -110.7331 104° East 510 587 37,000  Level Salt Lake Center
03:43PM 43.8925 -110.5603 108° East 498 573 37,000  Level Salt Lake Center
03:44PM 43.8472 -110.3589 107° East 492 566 37,000  Level Salt Lake Center
03:45PM 43.8103 -110.1875 107° East 487 560 37,000  Level Salt Lake Center
03:46PM 43.7667 -109.9883 107° East 486 559 37,000  Level Salt Lake Center
03:47PM 43.7267 -109.8194 108° East 483 556 37,000  Level Salt Lake Center
03:48PM 43.6817 -109.6181 107° East 491 565 37,000  Level Salt Lake Center
03:49PM 43.6831 -109.4292 89° East 508 585 37,000  Level Salt Lake Center
03:50PM 43.6958 -109.2344 85° East 512 589 37,000  Level Salt Lake Center
03:51PM 43.7139 -109.0411 83° East 512 589 37,000  Level Salt Lake Center
03:52PM 43.7367 -108.8072 82° East 514 592 37,000  Level Salt Lake Center
03:53PM 43.7539 -108.6133 83° East 511 588 37,000  Level Salt Lake Center
03:54PM 43.7678 -108.4197 84° East 509 586 37,000  Level Salt Lake Center
03:55PM 43.7736 -108.2231 88° East 513 590 37,000  Level Salt Lake Center
03:56PM 43.7817 -108.0281 87° East 513 590 37,000  Level Salt Lake Center
03:57PM 43.7897 -107.7947 87° East 510 587 37,000  Level Salt Lake Center
03:58PM 43.7950 -107.6011 88° East 509 586 37,000  Level Salt Lake Center
03:59PM 43.8003 -107.4081 88° East 506 582 37,000  Level Salt Lake Center
04:00PM 43.8067 -107.2136 87° East 508 585 37,000  Level Salt Lake Center
04:01PM 43.8106 -107.0197 88° East 509 586 37,000  Level Salt Lake Center
04:02PM 43.8206 -106.8006 86° East 506 582 37,000  Level Denver Center
04:03PM 43.8264 -106.6128 87° East 509 586 37,000  Level Denver Center
04:04PM 43.8322 -106.3961 88° East 506 582 37,000  Level Denver Center
04:05PM 43.8350 -106.2094 89° East 505 581 37,000  Level Denver Center
04:06PM 43.8392 -105.9908 88° East 507 583 37,000  Level Denver Center
04:07PM 43.8467 -105.7992 87° East 516 594 37,000  Level Denver Center
04:08PM 43.8503 -105.5806 89° East 512 589 37,000  Level Denver Center
04:09PM 43.8517 -105.3942 89° East 506 582 37,000  Level Denver Center
04:10PM 43.8544 -105.1772 89° East 504 580 37,000  Level Denver Center
04:11PM 43.8569 -104.9892 89° East 507 583 37,000  Level Denver Center
04:13PM 43.8581 -104.8044 89° East 503 579 37,000  Level Denver Center
04:14PM 43.8594 -104.5847 89° East 506 582 37,000  Level Denver Center
04:15PM 43.8606 -104.3986 89° East 504 580 37,000  Level Denver Center
04:16PM 43.8608 -104.1842 90° East 495 570 37,000  Level Denver Center
04:17PM 43.8628 -103.9978 89° East 501 577 37,000  Level Denver Center
04:18PM 43.8614 -103.7800 90° East 502 578 37,000  Level Denver Center
04:19PM 43.8611 -103.5942 90° East 502 578 37,000  Level Denver Center
04:20PM 43.8614 -103.3806 90° East 497 572 37,000  Level Denver Center
04:21PM 43.8625 -103.1975 89° East 496 571 37,000  Level Denver Center
04:22PM 43.8606 -102.9811 91° East 500 575 37,000  Level Denver Center
04:23PM 43.8592 -102.7964 91° East 501 577 37,000  Level Denver Center
04:24PM 43.8556 -102.6097 91° East 504 580 37,000  Level Denver Center
04:25PM 43.8531 -102.3947 91° East 502 578 37,000  Level Denver Center
04:26PM 43.8511 -102.2114 91° East 497 572 37,000  Level Denver Center
04:27PM 43.8472 -101.9911 91° East 502 578 37,000  Level Denver Center
04:28PM 43.8444 -101.8000 91° East 500 575 37,000  Level Denver Center
04:29PM 43.8372 -101.6075 93° East 504 580 37,000  Level Denver Center
04:30PM 43.8119 -101.4550 103° East 503 579 37,000  Level Minneapolis Center
04:31PM 43.7714 -101.2333 104° East 499 574 37,000  Level Minneapolis Center
04:32PM 43.7311 -101.0142 104° East 497 572 37,000  Level Denver Center
04:33PM 43.7028 -100.8642 105° East 499 574 37,000  Level Minneapolis Center
04:34PM 43.6700 -100.6839 104° East 495 570 37,000  Level Minneapolis Center
04:35PM 43.6303 -100.4625 104° East 490 564 37,000  Level Denver Center
04:36PM 43.5994 -100.2811 103° East 489 563 37,000  Level Denver Center
04:37PM 43.5700 -100.1033 103° East 482 555 37,000  Level Denver Center
04:38PM 43.5383 -99.8883 101° East 479 551 37,000  Level Denver Center
04:39PM 43.5311 -99.7492 94° East 472 543 37,000  Level Minneapolis Center
04:40PM 43.5219 -99.5717 94° East 467 537 37,000  Level Minneapolis Center
04:41PM 43.5100 -99.3919 95° East 472 543 37,000  Level Minneapolis Center
04:42PM 43.4981 -99.1725 94° East 480 552 37,000  Level Minneapolis Center
04:43PM 43.5139 -98.9861 83° East 494 568 37,000  Level Minneapolis Center
04:44PM 43.5275 -98.7961 84° East 498 573 37,000  Level Minneapolis Center
04:45PM 43.5417 -98.5856 85° East 500 575 37,000  Level Minneapolis Center
04:47PM 43.5553 -98.3975 84° East 496 571 37,000  Level Minneapolis Center
04:48PM 43.5664 -98.2128 85° East 488 562 37,000  Level Minneapolis Center
04:49PM 43.5817 -98.0300 83° East 485 558 37,000  Level Minneapolis Center
04:50PM 43.6550 -97.8819 56° Northeast 470 541 37,000  Level Minneapolis Center
04:51PM 43.7706 -97.8103 24° Northeast 455 524 37,000  Level Minneapolis Center
04:52PM 43.9117 -97.7458 18° North 446 513 37,000  Level Minneapolis Center
04:53PM 44.0300 -97.6953 17° North 444 511 37,000  Level Minneapolis Center
04:54PM 44.1486 -97.6433 17° North 446 513 37,000  Level Minneapolis Center
04:55PM 44.2650 -97.5786 22° Northeast 449 517 37,000  Level Minneapolis Center
04:56PM 44.3539 -97.4411 48° Northeast 476 548 37,000  Level Minneapolis Center
04:57PM 44.3917 -97.2558 74° East 497 572 37,000  Level Minneapolis Center
04:58PM 44.3603 -97.0269 101° East 501 577 37,000  Level Minneapolis Center
04:59PM 44.3228 -96.8378 105° East 505 581 37,000  Level Minneapolis Center
05:00PM 44.2875 -96.6497 105° East 504 580 37,000  Level Minneapolis Center
05:01PM 44.2494 -96.4606 106° East 506 582 37,000  Level Minneapolis Center
05:02PM 44.2150 -96.2783 105° East 499 574 37,000  Level Minneapolis Center
05:03PM 44.1706 -96.0631 106° East 513 590 37,000  Level Minneapolis Center
05:04PM 44.1333 -95.8758 105° East 508 585 37,000  Level Minneapolis Center
05:05PM 44.0956 -95.6894 106° East 504 580 37,000  Level Minneapolis Center
05:06PM 44.0575 -95.5036 106° East 500 575 37,000  Level Minneapolis Center
05:07PM 44.0103 -95.2819 106° East 500 575 37,000  Level Minneapolis Center
05:08PM 43.9714 -95.0978 106° East 499 574 37,000  Level Minneapolis Center
05:09PM 43.9328 -94.9144 106° East 498 573 37,000  Level Minneapolis Center
05:10PM 43.8928 -94.7297 107° East 500 575 37,000  Level Minneapolis Center
05:11PM 43.8522 -94.5439 107° East 503 579 37,000  Level Minneapolis Center
05:12PM 43.8128 -94.3586 106° East 503 579 37,000  Level Minneapolis Center
05:13PM 43.7700 -94.1672 107° East 503 579 37,000 -420 Level Minneapolis Center
05:14PM 43.7217 -93.9453 107° East 505 581 36,200 -780 Descending Minneapolis Center
05:15PM 43.6797 -93.7589 107° East 510 587 35,400 -780 Descending Minneapolis Center
05:17PM 43.6367 -93.5711 108° East 515 593 34,600 -780 Descending Minneapolis Center
05:18PM 43.5939 -93.3822 107° East 517 595 33,800 -720 Descending Minneapolis Center
05:19PM 43.5508 -93.1953 108° East 518 596 33,200 -420 Descending Minneapolis Center
05:20PM 43.4997 -92.9756 108° East 514 592 33,000 -120 Descending Minneapolis Center
05:21PM 43.4578 -92.7992 108° East 504 580 33,000  Level Minneapolis Center
05:22PM 43.4164 -92.6225 108° East 493 567 33,000  Level Minneapolis Center
05:23PM 43.3750 -92.4444 108° East 492 566 33,000  Level Minneapolis Center
05:24PM 43.3322 -92.2658 108° East 494 568 33,000 -60 Level Minneapolis Center
05:25PM 43.2811 -92.0522 108° East 494 568 32,900 -600 Descending Minneapolis Center
05:26PM 43.2389 -91.8731 108° East 496 571 31,800 -960 Descending Minneapolis Center
05:27PM 43.1967 -91.6969 108° East 493 567 31,000 -420 Descending Minneapolis Center
05:28PM 43.1425 -91.5303 114° Southeast 483 556 31,000  Level Minneapolis Center
05:29PM 43.0847 -91.3644 115° Southeast 481 554 31,000  Level Minneapolis Center
05:30PM 43.0253 -91.1997 116° Southeast 482 555 31,000  Level Minneapolis Center
05:31PM 42.9678 -91.0336 115° Southeast 484 557 31,000 -540 Level Minneapolis Center
05:32PM 42.8969 -90.8333 116° Southeast 488 562 29,900 -1,020 Descending Minneapolis Center
05:33PM 42.8492 -90.7000 116° Southeast 491 565 29,000 -1,080 Descending Minneapolis Center
05:34PM 42.7786 -90.5039 116° Southeast 486 559 27,700 -1,200 Descending Minneapolis Center
05:35PM 42.7206 -90.3417 116° Southeast 483 556 26,600 -1,020 Descending Minneapolis Center
05:36PM 42.6547 -90.1506 115° Southeast 478 550 25,500 -1,020 Descending Chicago Center
05:37PM 42.5856 -89.9653 117° Southeast 464 534 24,400 -960 Descending Chicago Center
05:38PM 42.5328 -89.8233 117° Southeast 454 522 23,600 -780 Descending Chicago Center
05:40PM 42.5143 -89.6418 94° East  Level FlightAware Approximate
05:41PM 42.4839 -89.4725 94° East 436 502 22,000  Level Chicago Center
05:42PM 42.4664 -89.3114 98° East 435 501 21,300 -1,080 Descending Chicago Center
05:43PM 42.4500 -89.1561 98° East 422 486 19,800 -1,500 Descending Chicago Center
05:44PM 42.4322 -89.0042 99° East 412 474 18,300 -1,620 Descending Chicago Center
05:45PM 42.4117 -88.8267 99° East 409 471 16,500 -2,400 Descending Chicago Center
05:46PM 42.3947 -88.6764 99° East 404 465 13,400 -3,000 Descending Chicago Center
05:47PM 42.3786 -88.5342 99° East 387 445 10,400 -1,680 Descending Chicago Center
05:48PM 42.3461 -88.4078 109° East 355 409 10,000 -240 Descending Chicago Center
05:49PM 42.2900 -88.3047 126° Southeast 357 411 10,000 -60 Level Chicago Center
05:50PM 42.2128 -88.1764 129° Southeast 367 422 9,900 -420 Descending Chicago Center
05:51PM 42.1547 -88.0992 135° Southeast 303 349 9,200 -1,260 Descending Chicago Center
05:52PM 42.1000 -88.0167 132° Southeast 292 336 7,300 -1,080 Descending Chicago TRACON
05:53PM 42.1000 -87.9167 90° East 279 321 7,000 -180 Descending Chicago TRACON
05:54PM 42.1000 -87.8333 90° East 220 253 7,000 -420 Level Chicago TRACON
05:55PM 42.1000 -87.7500 90° East 219 252 6,200 -1,080 Descending Chicago TRACON
05:56PM 42.0667 -87.6833 124° Southeast 223 257 4,900 -1,440 Descending Chicago TRACON
05:57PM 42.0333 -87.7000 200° South 193 222 3,400 -1,200 Descending Chicago TRACON
05:58PM 42.0167 -87.7667 251° West 175 201 2,500 -900 Descending Chicago TRACON